Time;durP1;ratioP1;P1;durP2;ratioP2;P2;SDS_P1;SDS_P2;PMS_P1;PMS_P2;Temp;Humidity;BMP_temperature;BMP_pressure;BME280_temperature;BME280_humidity;BME280_pressure;Samples;Min_cycle;Max_cycle;Signal;HPM_P1;HPM_P2
2024/03/05 00:00:09;;;;;;;10.40;4.43;;;8.10;99.90;;;;;;5060352;28;20864;-82
2024/03/05 00:02:38;;;;;;;14.67;6.10;;;8.10;99.90;;;;;;5059820;28;20422;-82
2024/03/05 00:05:06;;;;;;;13.47;5.40;;;8.10;99.90;;;;;;5059434;28;20839;-81
2024/03/05 00:07:35;;;;;;;7.43;4.50;;;8.00;99.90;;;;;;5059950;28;20841;-81
2024/03/05 00:10:02;;;;;;;14.83;4.47;;;8.00;99.90;;;;;;5059746;28;20450;-81
2024/03/05 00:12:29;;;;;;;12.20;4.27;;;8.00;99.90;;;;;;5059034;28;21006;-81
2024/03/05 00:14:56;;;;;;;8.43;3.30;;;7.90;99.90;;;;;;5059921;28;20905;-81
2024/03/05 00:17:23;;;;;;;12.77;4.23;;;7.90;99.90;;;;;;5058907;28;20462;-82
2024/03/05 00:19:50;;;;;;;10.67;4.37;;;7.90;99.90;;;;;;5058945;28;20449;-81
2024/03/05 00:22:17;;;;;;;9.30;4.10;;;7.90;99.90;;;;;;5058932;28;20474;-81
2024/03/05 00:24:45;;;;;;;8.70;5.07;;;7.90;99.90;;;;;;5058480;28;20434;-81
2024/03/05 00:27:13;;;;;;;12.17;3.73;;;8.00;99.90;;;;;;5058483;28;20466;-81
2024/03/05 00:29:40;;;;;;;10.27;3.03;;;8.00;99.90;;;;;;5057739;28;20965;-81
2024/03/05 00:32:08;;;;;;;13.97;5.17;;;8.00;99.90;;;;;;5058021;28;20856;-81
2024/03/05 00:34:34;;;;;;;8.60;4.37;;;8.10;99.90;;;;;;5057562;28;20434;-81
2024/03/05 00:37:01;;;;;;;13.07;5.30;;;8.10;99.90;;;;;;5057236;28;20477;-81
2024/03/05 00:39:28;;;;;;;17.57;6.13;;;8.00;99.90;;;;;;5058496;28;20449;-81
2024/03/05 00:41:56;;;;;;;12.43;6.60;;;8.00;99.90;;;;;;5061254;28;20450;-80
2024/03/05 00:44:23;;;;;;;12.60;5.13;;;8.10;99.90;;;;;;5061132;28;20438;-82
2024/03/05 00:46:49;;;;;;;17.13;6.10;;;8.10;99.90;;;;;;5061986;28;20465;-81
2024/03/05 00:49:16;;;;;;;10.63;4.83;;;8.10;99.90;;;;;;5061356;28;20465;-81
2024/03/05 00:51:43;;;;;;;15.30;5.07;;;8.10;99.90;;;;;;5061025;28;20450;-81
2024/03/05 00:54:10;;;;;;;7.43;3.57;;;8.00;99.90;;;;;;5059359;28;20445;-82
2024/03/05 00:56:37;;;;;;;15.97;3.87;;;8.10;99.90;;;;;;5059284;28;20442;-81
2024/03/05 00:59:05;;;;;;;12.37;4.93;;;8.00;99.90;;;;;;5063396;28;20442;-82
2024/03/05 01:01:33;;;;;;;7.73;3.17;;;8.00;99.90;;;;;;5059505;28;20441;-82
2024/03/05 01:04:00;;;;;;;15.10;5.57;;;8.00;99.90;;;;;;5060154;28;20939;-82
2024/03/05 01:06:26;;;;;;;16.57;5.23;;;8.00;99.90;;;;;;5058135;28;20442;-82
2024/03/05 01:08:53;;;;;;;5.60;3.40;;;8.00;99.90;;;;;;5059037;28;20452;-82
2024/03/05 01:11:20;;;;;;;8.47;4.00;;;7.90;99.90;;;;;;5058412;28;20445;-81
2024/03/05 01:13:47;;;;;;;9.43;6.60;;;7.90;99.90;;;;;;5058863;28;20528;-81
2024/03/05 01:16:15;;;;;;;21.57;6.60;;;7.90;99.90;;;;;;5058550;28;20461;-83
2024/03/05 01:18:42;;;;;;;13.90;5.90;;;7.90;99.90;;;;;;5058032;28;20480;-80
2024/03/05 01:21:09;;;;;;;15.80;6.13;;;7.90;99.90;;;;;;5058616;28;20438;-80
2024/03/05 01:23:38;;;;;;;9.57;3.80;;;7.90;99.90;;;;;;5057467;28;20476;-81
2024/03/05 01:26:04;;;;;;;9.00;4.43;;;8.00;99.90;;;;;;5057618;28;20489;-80
2024/03/05 01:28:31;;;;;;;9.37;5.00;;;7.90;99.90;;;;;;5057748;28;20476;-82
2024/03/05 01:30:58;;;;;;;13.47;5.10;;;7.90;99.90;;;;;;5057494;28;20445;-82
2024/03/05 01:33:26;;;;;;;15.60;5.80;;;7.90;99.90;;;;;;5057041;28;20481;-82
2024/03/05 01:35:53;;;;;;;11.47;5.37;;;7.90;99.90;;;;;;5057308;28;20448;-81
2024/03/05 01:38:21;;;;;;;13.07;4.03;;;7.90;99.90;;;;;;5057097;28;20465;-81
2024/03/05 01:40:47;;;;;;;12.87;3.90;;;7.90;99.90;;;;;;5057356;28;20438;-81
2024/03/05 01:43:16;;;;;;;13.20;4.00;;;7.90;99.90;;;;;;5057680;28;20460;-81
2024/03/05 01:45:43;;;;;;;13.43;5.27;;;7.90;99.90;;;;;;5057730;28;20450;-82
2024/03/05 01:48:11;;;;;;;12.43;3.83;;;7.80;99.90;;;;;;5057440;28;20489;-82
2024/03/05 01:50:39;;;;;;;15.70;6.60;;;7.80;99.90;;;;;;5057601;28;20446;-82
2024/03/05 01:53:10;;;;;;;9.40;4.77;;;7.90;99.90;;;;;;5057964;28;21022;-82
2024/03/05 01:55:40;;;;;;;10.60;4.70;;;7.90;99.90;;;;;;5058382;28;20433;-82
2024/03/05 01:58:10;;;;;;;11.03;5.23;;;8.00;99.90;;;;;;5057211;28;20474;-82
2024/03/05 02:00:37;;;;;;;7.63;3.87;;;8.00;99.90;;;;;;5059047;28;20500;-80
2024/03/05 02:03:04;;;;;;;14.53;4.70;;;8.00;99.90;;;;;;5079047;28;20442;-80
2024/03/05 02:05:32;;;;;;;13.70;3.70;;;8.00;99.90;;;;;;5078999;28;20457;-81
2024/03/05 02:08:01;;;;;;;16.17;4.83;;;8.00;99.90;;;;;;5078701;28;20478;-80
2024/03/05 02:10:28;;;;;;;9.43;3.63;;;8.00;99.90;;;;;;5067680;28;20532;-81
2024/03/05 02:12:55;;;;;;;12.90;4.50;;;8.00;99.90;;;;;;5059240;28;20488;-81
2024/03/05 02:15:22;;;;;;;14.00;6.33;;;8.00;99.90;;;;;;5059128;28;20453;-81
2024/03/05 02:17:48;;;;;;;8.47;4.40;;;8.00;99.90;;;;;;5059370;28;20460;-81
2024/03/05 02:20:15;;;;;;;11.67;3.73;;;8.00;99.90;;;;;;5064924;28;20442;-81
2024/03/05 02:22:46;;;;;;;16.00;5.77;;;7.90;99.90;;;;;;5065099;28;20487;-81
2024/03/05 02:25:12;;;;;;;6.70;3.27;;;7.90;99.90;;;;;;5064437;28;20919;-81
2024/03/05 02:27:41;;;;;;;11.00;4.20;;;7.90;99.90;;;;;;5064358;28;20469;-81
2024/03/05 02:30:11;;;;;;;8.27;4.17;;;7.90;99.90;;;;;;5064371;28;20442;-81
2024/03/05 02:32:40;;;;;;;13.00;5.47;;;7.90;99.90;;;;;;5063384;28;20826;-81
2024/03/05 02:35:08;;;;;;;7.87;3.00;;;7.80;99.90;;;;;;5063943;28;20449;-82
2024/03/05 02:37:37;;;;;;;11.03;6.63;;;7.80;99.90;;;;;;5063471;28;20832;-81
2024/03/05 02:40:08;;;;;;;15.80;5.00;;;7.80;99.90;;;;;;5062662;28;20433;-81
2024/03/05 02:42:35;;;;;;;13.73;6.40;;;7.80;99.90;;;;;;5062922;28;20432;-81
2024/03/05 02:45:04;;;;;;;11.07;4.60;;;7.90;99.90;;;;;;5063266;28;20815;-80
2024/03/05 02:47:31;;;;;;;6.87;3.70;;;7.80;99.90;;;;;;5061837;28;20981;-81
2024/03/05 02:49:58;;;;;;;10.17;4.23;;;7.80;99.90;;;;;;5061656;28;20445;-80
2024/03/05 02:52:26;;;;;;;13.67;4.97;;;7.70;99.90;;;;;;5062122;28;20851;-80
2024/03/05 02:54:52;;;;;;;16.10;6.00;;;7.60;99.90;;;;;;5060624;28;20934;-80
2024/03/05 02:57:21;;;;;;;25.83;6.67;;;7.50;99.90;;;;;;5061044;28;20465;-80
2024/03/05 02:59:47;;;;;;;9.43;5.30;;;7.50;99.90;;;;;;5063027;28;20445;-79
2024/03/05 03:02:14;;;;;;;9.83;4.80;;;7.40;99.90;;;;;;5060776;28;20977;-80
2024/03/05 03:04:41;;;;;;;11.87;4.50;;;7.40;99.90;;;;;;5059951;28;20449;-80
2024/03/05 03:07:07;;;;;;;8.70;3.80;;;7.40;99.90;;;;;;5059901;28;20472;-79
2024/03/05 03:09:35;;;;;;;10.73;4.80;;;7.30;99.90;;;;;;5059578;28;20446;-79
2024/03/05 03:12:01;;;;;;;13.53;5.00;;;7.20;99.90;;;;;;5059762;28;20532;-79
2024/03/05 03:14:29;;;;;;;11.33;5.37;;;7.20;99.90;;;;;;5059660;28;20568;-79
2024/03/05 03:16:56;;;;;;;14.90;4.40;;;7.20;99.90;;;;;;5059663;28;20634;-79
2024/03/05 03:19:23;;;;;;;7.90;3.67;;;7.30;99.90;;;;;;5059989;28;20441;-79
2024/03/05 03:21:49;;;;;;;11.50;4.50;;;7.30;99.90;;;;;;5059396;28;20503;-79
2024/03/05 03:24:17;;;;;;;11.50;4.47;;;7.30;99.90;;;;;;5060045;28;20440;-79
2024/03/05 03:26:44;;;;;;;9.70;3.97;;;7.30;99.90;;;;;;5059420;28;20500;-79
2024/03/05 03:29:13;;;;;;;12.13;4.70;;;7.30;99.90;;;;;;5059135;28;20496;-79
2024/03/05 03:31:45;;;;;;;12.10;4.70;;;7.40;99.90;;;;;;5055756;28;20947;-78
2024/03/05 03:34:12;;;;;;;10.33;3.80;;;7.30;99.90;;;;;;5056466;28;20846;-79
2024/03/05 03:36:39;;;;;;;17.77;7.63;;;7.30;99.90;;;;;;5056154;28;20970;-79
2024/03/05 03:39:10;;;;;;;17.50;5.17;;;7.40;99.90;;;;;;5056269;28;20541;-79
2024/03/05 03:41:38;;;;;;;10.87;4.47;;;7.40;99.90;;;;;;5056453;28;20529;-79
2024/03/05 03:44:06;;;;;;;9.40;4.20;;;7.40;99.90;;;;;;5056607;28;20442;-79
2024/03/05 03:46:34;;;;;;;11.53;3.77;;;7.40;99.90;;;;;;5056394;28;20464;-79
2024/03/05 03:49:04;;;;;;;11.27;4.77;;;7.40;99.90;;;;;;5057605;28;20454;-79
2024/03/05 03:51:31;;;;;;;16.77;4.87;;;7.40;99.90;;;;;;5057022;28;20441;-79
2024/03/05 03:53:57;;;;;;;14.27;4.07;;;7.40;99.90;;;;;;5056306;28;20486;-79
2024/03/05 03:56:25;;;;;;;12.17;5.37;;;7.50;99.90;;;;;;5056626;28;20452;-79
2024/03/05 03:58:52;;;;;;;8.17;3.63;;;7.40;99.90;;;;;;5056776;28;20863;-80
2024/03/05 04:01:20;;;;;;;14.47;5.80;;;7.40;99.90;;;;;;5056916;28;20443;-81
2024/03/05 04:03:47;;;;;;;7.53;4.07;;;7.50;99.90;;;;;;5056333;28;20446;-80
2024/03/05 04:06:15;;;;;;;12.87;5.27;;;7.40;99.90;;;;;;5055946;28;20934;-79
2024/03/05 04:08:42;;;;;;;8.70;4.43;;;7.40;99.90;;;;;;5056267;28;20470;-80
2024/03/05 04:11:09;;;;;;;13.10;5.07;;;7.50;99.90;;;;;;5056350;28;20452;-79
2024/03/05 04:13:38;;;;;;;11.77;4.23;;;7.50;99.90;;;;;;5056568;28;20481;-80
2024/03/05 04:16:05;;;;;;;12.70;5.40;;;7.50;99.90;;;;;;5056082;28;20813;-79
2024/03/05 04:18:32;;;;;;;10.67;5.20;;;7.50;99.90;;;;;;5055448;28;20461;-80
2024/03/05 04:21:00;;;;;;;13.80;5.20;;;7.50;99.90;;;;;;5055567;28;20430;-80
2024/03/05 04:23:28;;;;;;;12.40;4.77;;;7.50;99.90;;;;;;5055323;28;20481;-80
2024/03/05 04:25:58;;;;;;;11.40;3.87;;;7.60;99.90;;;;;;5055383;28;20450;-80
2024/03/05 04:28:26;;;;;;;22.03;6.33;;;7.60;99.90;;;;;;5055732;28;20553;-80
2024/03/05 04:30:57;;;;;;;16.37;5.50;;;7.60;99.90;;;;;;5056043;28;20461;-80
2024/03/05 04:33:28;;;;;;;10.80;3.97;;;7.60;99.90;;;;;;5055826;28;20481;-79
2024/03/05 04:35:54;;;;;;;14.00;3.80;;;7.50;99.90;;;;;;5055311;28;20904;-80
2024/03/05 04:38:21;;;;;;;17.00;5.93;;;7.50;99.90;;;;;;5055675;28;20466;-77
2024/03/05 04:40:50;;;;;;;16.90;5.33;;;7.40;99.90;;;;;;5054913;28;20429;-77
2024/03/05 04:43:17;;;;;;;10.93;5.53;;;7.40;99.90;;;;;;5054190;28;20446;-78
2024/03/05 04:45:43;;;;;;;5.30;3.30;;;7.40;99.90;;;;;;5055393;28;20454;-80
2024/03/05 04:48:10;;;;;;;18.37;4.33;;;7.30;99.90;;;;;;5054577;28;20831;-78
2024/03/05 04:50:37;;;;;;;9.80;4.93;;;7.20;99.90;;;;;;5078950;28;20468;-77
2024/03/05 04:53:04;;;;;;;10.57;5.33;;;7.20;99.90;;;;;;5079655;28;20442;-78
2024/03/05 04:55:31;;;;;;;11.77;4.07;;;7.20;99.90;;;;;;5079348;28;20445;-77
2024/03/05 04:57:59;;;;;;;11.57;3.87;;;7.20;99.90;;;;;;5071908;28;21000;-78
2024/03/05 05:00:25;;;;;;;10.07;3.53;;;7.20;99.90;;;;;;5054897;28;20445;-78
2024/03/05 05:02:52;;;;;;;12.97;4.57;;;7.20;99.90;;;;;;5054674;28;20448;-78
2024/03/05 05:05:19;;;;;;;17.73;6.67;;;7.20;99.90;;;;;;5054521;28;20298;-78
2024/03/05 05:07:47;;;;;;;7.87;3.50;;;7.20;99.90;;;;;;5054601;28;20515;-78
2024/03/05 05:10:14;;;;;;;11.83;4.10;;;7.10;99.90;;;;;;5054495;28;20449;-78
2024/03/05 05:12:41;;;;;;;14.33;3.80;;;7.10;99.90;;;;;;5054770;28;20940;-78
2024/03/05 05:15:12;;;;;;;14.77;5.53;;;7.10;99.90;;;;;;5055474;28;20489;-78
2024/03/05 05:17:38;;;;;;;12.30;4.30;;;7.20;99.90;;;;;;5054508;28;20492;-78
2024/03/05 05:20:08;;;;;;;12.17;5.47;;;7.20;99.90;;;;;;5054441;28;20450;-78
2024/03/05 05:22:37;;;;;;;11.63;3.73;;;7.20;99.90;;;;;;5054131;28;20849;-78
2024/03/05 05:25:04;;;;;;;33.43;5.37;;;7.20;99.90;;;;;;5054161;28;20457;-78
2024/03/05 05:27:31;;;;;;;13.30;5.30;;;7.20;99.90;;;;;;5054154;28;20798;-78
2024/03/05 05:29:58;;;;;;;13.97;5.00;;;7.30;99.90;;;;;;5054258;28;20442;-78
2024/03/05 05:32:27;;;;;;;14.20;5.97;;;7.20;99.90;;;;;;5054058;28;20816;-78
2024/03/05 05:34:53;;;;;;;11.97;4.10;;;7.20;99.90;;;;;;5054292;28;20500;-79
2024/03/05 05:37:20;;;;;;;11.60;4.33;;;7.10;99.90;;;;;;5054354;28;20473;-79
2024/03/05 05:39:47;;;;;;;12.03;6.03;;;7.10;99.90;;;;;;5053927;28;20446;-79
2024/03/05 05:42:14;;;;;;;16.93;6.40;;;7.20;99.90;;;;;;5055904;28;20935;-79
2024/03/05 05:44:42;;;;;;;12.53;4.40;;;7.20;99.90;;;;;;5054773;28;20951;-80
2024/03/05 05:47:11;;;;;;;12.50;3.50;;;7.20;99.90;;;;;;5053844;28;20462;-80
2024/03/05 05:49:39;;;;;;;9.43;3.03;;;7.20;99.90;;;;;;5053858;28;20454;-80
2024/03/05 05:52:07;;;;;;;14.17;5.87;;;7.20;99.90;;;;;;5053682;28;20453;-80
2024/03/05 05:54:40;;;;;;;22.00;6.70;;;7.20;99.90;;;;;;5053299;28;20565;-80
2024/03/05 05:57:08;;;;;;;12.43;4.40;;;7.30;99.90;;;;;;5053790;28;20469;-80
2024/03/05 05:59:34;;;;;;;7.23;3.33;;;7.30;99.90;;;;;;5053219;28;20438;-80
2024/03/05 06:02:01;;;;;;;12.70;6.00;;;7.30;99.90;;;;;;5053465;28;20449;-80
2024/03/05 06:04:28;;;;;;;12.77;5.60;;;7.30;99.90;;;;;;5053770;28;20516;-80
2024/03/05 06:06:56;;;;;;;10.50;5.50;;;7.30;99.90;;;;;;5053596;28;20879;-80
2024/03/05 06:09:28;;;;;;;15.70;4.40;;;7.20;99.90;;;;;;5053834;28;20446;-80
2024/03/05 06:11:54;;;;;;;12.97;4.93;;;7.20;99.90;;;;;;5053831;28;20434;-80
2024/03/05 06:14:22;;;;;;;18.60;4.67;;;7.20;99.90;;;;;;5053420;28;20903;-80
2024/03/05 06:16:48;;;;;;;15.57;5.57;;;7.30;99.90;;;;;;5053655;28;20476;-80
2024/03/05 06:19:15;;;;;;;16.30;5.37;;;7.30;99.90;;;;;;5053607;28;20449;-80
2024/03/05 06:21:42;;;;;;;11.67;5.53;;;7.30;99.90;;;;;;5053385;28;20954;-80
2024/03/05 06:24:11;;;;;;;19.13;5.77;;;7.30;99.90;;;;;;5053859;28;20484;-80
2024/03/05 06:26:38;;;;;;;18.57;7.07;;;7.40;99.90;;;;;;5054645;28;20446;-80
2024/03/05 06:29:06;;;;;;;18.60;5.53;;;7.40;99.90;;;;;;5053803;28;20468;-80
2024/03/05 06:31:33;;;;;;;15.47;6.60;;;7.30;99.90;;;;;;5053525;28;20450;-79
2024/03/05 06:34:05;;;;;;;10.10;5.53;;;7.40;99.90;;;;;;5053462;28;20474;-80
2024/03/05 06:36:33;;;;;;;17.27;4.93;;;7.40;99.90;;;;;;5053401;28;20790;-80
2024/03/05 06:39:00;;;;;;;12.93;5.47;;;7.40;99.90;;;;;;5054341;28;20445;-80
2024/03/05 06:41:29;;;;;;;16.13;4.23;;;7.40;99.90;;;;;;5053984;28;20454;-80
2024/03/05 06:44:10;;;;;;;21.70;5.27;;;7.40;99.90;;;;;;5053781;28;20440;-80
2024/03/05 06:46:41;;;;;;;11.93;5.00;;;7.40;99.90;;;;;;5057881;28;20426;-80
2024/03/05 06:49:08;;;;;;;13.30;5.00;;;7.40;99.90;;;;;;5059719;28;20806;-81
2024/03/05 06:51:41;;;;;;;17.27;6.27;;;7.40;99.90;;;;;;5060156;28;20454;-81
2024/03/05 06:56:54;;;;;;;11.00;4.27;;;7.40;99.90;;;;;;5060401;28;20464;-81
2024/03/05 06:59:21;;;;;;;11.70;6.00;;;7.40;99.90;;;;;;5056714;28;20449;-80
2024/03/05 07:01:47;;;;;;;14.80;5.60;;;7.40;99.90;;;;;;5054534;28;20442;-81
2024/03/05 07:04:14;;;;;;;18.27;6.83;;;7.40;99.90;;;;;;5055013;28;20823;-80
2024/03/05 07:06:41;;;;;;;15.07;6.23;;;7.40;99.90;;;;;;5058797;28;20462;-81
2024/03/05 07:09:11;;;;;;;14.17;4.50;;;7.50;99.90;;;;;;5058345;28;20441;-80
2024/03/05 07:11:38;;;;;;;18.10;7.03;;;7.60;99.90;;;;;;5059574;28;20464;-80
2024/03/05 07:14:07;;;;;;;19.30;6.70;;;7.40;99.90;;;;;;5060364;28;20919;-80
2024/03/05 07:16:34;;;;;;;20.37;5.80;;;7.40;99.90;;;;;;5060526;28;20438;-80
2024/03/05 07:19:01;;;;;;;14.33;4.03;;;7.40;99.90;;;;;;5059941;28;20457;-81
2024/03/05 07:21:28;;;;;;;18.70;5.30;;;7.40;99.90;;;;;;5060243;28;20846;-80
2024/03/05 07:23:56;;;;;;;13.80;4.90;;;7.50;99.90;;;;;;5058529;28;20489;-81
2024/03/05 07:26:23;;;;;;;14.53;5.53;;;7.60;99.90;;;;;;5058237;28;20449;-80
2024/03/05 07:28:50;;;;;;;10.33;4.40;;;7.60;99.90;;;;;;5060389;28;20943;-80
2024/03/05 07:31:19;;;;;;;13.87;5.03;;;7.60;99.90;;;;;;5058004;28;20943;-80
2024/03/05 07:33:45;;;;;;;19.20;5.07;;;7.60;99.90;;;;;;5057698;28;20446;-79
2024/03/05 07:36:12;;;;;;;16.87;5.50;;;7.70;99.90;;;;;;5058403;28;20438;-80
2024/03/05 07:38:39;;;;;;;20.07;6.90;;;7.70;99.90;;;;;;5059871;28;20465;-81
2024/03/05 07:41:07;;;;;;;19.70;5.47;;;7.80;99.90;;;;;;5058277;28;20446;-80
2024/03/05 07:43:33;;;;;;;13.93;4.80;;;7.80;99.90;;;;;;5059835;28;20452;-80
2024/03/05 07:46:00;;;;;;;13.20;5.10;;;7.80;99.90;;;;;;5061471;28;20446;-80
2024/03/05 07:48:28;;;;;;;12.40;5.90;;;7.80;99.90;;;;;;5081007;28;20864;-80
2024/03/05 07:50:55;;;;;;;21.73;6.23;;;7.80;99.90;;;;;;5081514;28;20427;-80
2024/03/05 07:53:24;;;;;;;7.37;3.30;;;7.80;99.90;;;;;;5081123;28;20441;-81
2024/03/05 07:55:51;;;;;;;7.57;4.20;;;7.90;99.90;;;;;;5067652;28;20482;-80
2024/03/05 07:58:17;;;;;;;9.47;4.57;;;7.90;99.90;;;;;;5060731;28;20523;-80
2024/03/05 08:00:44;;;;;;;9.57;5.50;;;7.90;99.90;;;;;;5061621;28;20446;-80
2024/03/05 08:03:11;;;;;;;15.10;5.63;;;7.80;99.90;;;;;;5061152;28;20958;-81
2024/03/05 08:05:41;;;;;;;9.43;4.27;;;7.80;99.90;;;;;;5061000;28;20445;-80
2024/03/05 08:08:09;;;;;;;16.70;4.97;;;7.80;99.90;;;;;;5060514;28;20465;-78
2024/03/05 08:10:36;;;;;;;16.43;6.20;;;7.80;99.90;;;;;;5060378;28;20481;-80
2024/03/05 08:13:03;;;;;;;5.60;2.57;;;7.90;99.90;;;;;;5059971;28;20513;-80
2024/03/05 08:15:29;;;;;;;8.27;3.20;;;7.90;99.90;;;;;;5059507;28;20982;-81
2024/03/05 08:17:57;;;;;;;12.10;4.90;;;7.90;99.90;;;;;;5060031;28;20461;-80
2024/03/05 08:20:25;;;;;;;9.93;4.10;;;7.90;99.90;;;;;;5060348;28;20511;-81
2024/03/05 08:22:54;;;;;;;9.40;3.00;;;7.90;99.90;;;;;;5060481;28;20485;-81
2024/03/05 08:25:21;;;;;;;11.13;3.80;;;7.90;99.90;;;;;;5060635;28;20438;-81
2024/03/05 08:27:50;;;;;;;8.27;3.70;;;7.90;99.90;;;;;;5060786;28;20466;-81
2024/03/05 08:30:19;;;;;;;9.40;5.33;;;7.80;99.90;;;;;;5061702;28;20485;-81
2024/03/05 08:32:47;;;;;;;13.87;3.20;;;7.80;99.90;;;;;;5060418;28;20449;-81
2024/03/05 08:35:14;;;;;;;6.67;2.70;;;7.90;99.90;;;;;;5062627;28;20539;-80
2024/03/05 08:37:41;;;;;;;5.13;2.57;;;7.90;99.90;;;;;;5060968;28;20462;-82
2024/03/05 08:40:13;;;;;;;8.93;3.40;;;8.00;99.90;;;;;;5063067;28;20449;-81
2024/03/05 08:42:42;;;;;;;5.53;2.70;;;8.00;99.90;;;;;;5061699;28;20434;-82
2024/03/05 08:45:09;;;;;;;10.80;3.33;;;8.10;99.90;;;;;;5061932;28;20476;-80
2024/03/05 08:47:36;;;;;;;5.93;2.63;;;8.20;99.90;;;;;;5064362;28;20844;-81
2024/03/05 08:50:04;;;;;;;1.97;1.80;;;8.20;99.90;;;;;;5061043;28;20461;-82
2024/03/05 08:52:31;;;;;;;6.10;3.87;;;8.30;99.90;;;;;;5060238;28;20449;-81
2024/03/05 08:54:58;;;;;;;9.03;2.67;;;8.30;99.90;;;;;;5060999;28;20484;-82
2024/03/05 08:57:27;;;;;;;4.20;2.00;;;8.30;99.90;;;;;;5060315;28;20841;-81
2024/03/05 08:59:53;;;;;;;8.60;2.73;;;8.30;99.90;;;;;;5062061;28;20446;-81
2024/03/05 09:02:20;;;;;;;8.40;4.13;;;8.40;99.90;;;;;;5062723;28;20450;-81
2024/03/05 09:04:47;;;;;;;8.57;4.90;;;8.50;99.90;;;;;;5060666;28;20473;-80
2024/03/05 09:07:14;;;;;;;4.40;2.20;;;8.40;99.90;;;;;;5058890;28;20474;-80
2024/03/05 09:09:41;;;;;;;8.00;3.20;;;8.40;99.90;;;;;;5059632;28;20456;-80
2024/03/05 09:12:08;;;;;;;6.90;2.70;;;8.30;99.90;;;;;;5058940;28;20784;-80
2024/03/05 09:14:36;;;;;;;8.43;3.17;;;8.20;99.90;;;;;;5058491;28;20445;-80
2024/03/05 09:17:05;;;;;;;9.17;2.70;;;8.20;99.90;;;;;;5058679;28;20476;-80
2024/03/05 09:19:31;;;;;;;3.53;2.20;;;8.10;99.90;;;;;;5058258;28;20454;-80
2024/03/05 09:21:59;;;;;;;4.30;2.00;;;8.10;99.90;;;;;;5059210;28;20481;-80
2024/03/05 09:24:27;;;;;;;6.30;2.10;;;8.00;99.90;;;;;;5057629;28;20472;-79
2024/03/05 09:26:54;;;;;;;3.77;2.03;;;8.10;99.90;;;;;;5058749;28;20461;-80
2024/03/05 09:29:21;;;;;;;7.07;2.57;;;8.00;99.90;;;;;;5057244;28;20446;-80
2024/03/05 09:31:49;;;;;;;7.57;1.80;;;7.90;99.90;;;;;;5058239;28;20442;-80
2024/03/05 09:34:16;;;;;;;14.57;2.20;;;7.90;99.90;;;;;;5057858;28;20484;-80
2024/03/05 09:36:43;;;;;;;1.93;1.70;;;7.90;99.90;;;;;;5057516;28;20567;-80
2024/03/05 09:39:10;;;;;;;2.50;1.07;;;7.90;99.90;;;;;;5056740;28;20472;-79
2024/03/05 09:41:42;;;;;;;6.40;2.50;;;7.90;99.90;;;;;;5057028;28;20453;-79
2024/03/05 09:44:09;;;;;;;2.40;2.03;;;7.80;99.90;;;;;;5057770;28;20423;-79
2024/03/05 09:47:03;;;;;;;2.67;1.97;;;7.90;99.90;;;;;;5056678;28;20962;-83
2024/03/05 09:49:30;;;;;;;2.80;1.70;;;7.90;99.90;;;;;;5058309;28;20951;-80
2024/03/05 09:51:57;;;;;;;3.23;1.53;;;8.00;99.90;;;;;;5057395;28;20961;-80
2024/03/05 09:54:23;;;;;;;3.90;2.00;;;8.00;99.90;;;;;;5057602;28;20449;-80
2024/03/05 09:56:53;;;;;;;4.17;2.90;;;8.10;99.90;;;;;;5057080;28;20488;-80
2024/03/05 09:59:20;;;;;;;5.10;1.37;;;8.20;99.90;;;;;;5057558;28;20192;-79
2024/03/05 10:01:49;;;;;;;7.60;2.10;;;8.30;99.90;;;;;;5057003;28;20936;-81
2024/03/05 10:04:18;;;;;;;3.37;2.70;;;8.40;99.90;;;;;;5057939;28;20450;-79
2024/03/05 10:06:46;;;;;;;4.60;1.83;;;8.50;99.90;;;;;;5057967;28;20469;-79
2024/03/05 10:09:13;;;;;;;4.77;2.03;;;8.60;99.90;;;;;;5058098;28;20507;-80
2024/03/05 10:11:40;;;;;;;5.30;2.40;;;8.80;99.90;;;;;;5058123;28;20450;-79
2024/03/05 10:14:08;;;;;;;4.90;1.80;;;8.90;99.90;;;;;;5057844;28;20446;-79
2024/03/05 10:16:35;;;;;;;4.23;1.33;;;9.00;99.90;;;;;;5058949;28;20504;-79
2024/03/05 10:19:12;;;;;;;4.50;1.90;;;9.10;99.90;;;;;;5067741;28;20434;-80
2024/03/05 10:21:40;;;;;;;5.83;2.40;;;9.20;99.90;;;;;;5078867;28;20463;-80
2024/03/05 10:24:09;;;;;;;4.27;2.37;;;9.10;99.90;;;;;;5078134;28;20482;-80
2024/03/05 10:26:37;;;;;;;2.27;2.07;;;9.10;99.90;;;;;;5077615;28;20453;-78
2024/03/05 10:29:07;;;;;;;6.70;2.43;;;8.90;99.90;;;;;;5063773;28;20444;-79
2024/03/05 10:31:35;;;;;;;5.93;1.97;;;8.90;99.90;;;;;;5060871;28;20422;-79
2024/03/05 10:34:03;;;;;;;3.33;1.60;;;9.00;99.90;;;;;;5059416;28;20442;-80
2024/03/05 10:36:31;;;;;;;2.20;1.20;;;9.10;99.90;;;;;;5058579;28;20477;-79
2024/03/05 10:38:59;;;;;;;2.10;1.43;;;9.20;99.90;;;;;;5059897;28;20446;-80
2024/03/05 10:41:29;;;;;;;3.73;1.33;;;9.40;99.90;;;;;;5064341;28;20452;-80
2024/03/05 10:44:00;;;;;;;2.40;1.53;;;9.50;99.90;;;;;;5067185;28;20551;-80
2024/03/05 10:46:29;;;;;;;1.37;1.23;;;9.60;99.90;;;;;;5063241;28;20430;-80
2024/03/05 10:48:57;;;;;;;1.90;1.33;;;9.50;99.90;;;;;;5063544;28;20450;-80
2024/03/05 10:51:28;;;;;;;1.97;1.30;;;9.50;99.90;;;;;;5062976;28;20441;-80
2024/03/05 10:53:59;;;;;;;1.47;1.20;;;9.50;99.90;;;;;;5062813;28;20930;-80
2024/03/05 10:56:27;;;;;;;1.20;1.00;;;9.40;99.90;;;;;;5062843;28;20474;-80
2024/03/05 10:59:24;;;;;;;4.07;1.40;;;9.30;99.90;;;;;;5062501;28;20950;-79
2024/03/05 11:01:54;;;;;;;1.47;1.37;;;9.20;99.90;;;;;;5060765;28;20923;-84
2024/03/05 11:04:22;;;;;;;2.83;1.00;;;9.10;99.90;;;;;;5061766;28;20446;-83
2024/03/05 11:06:53;;;;;;;2.07;0.90;;;9.00;99.90;;;;;;5063084;28;20971;-81
2024/03/05 11:09:22;;;;;;;1.87;1.17;;;8.90;99.90;;;;;;5061980;28;20441;-80
2024/03/05 11:11:56;;;;;;;1.77;1.03;;;8.90;99.90;;;;;;5061836;28;20449;-80
2024/03/05 11:14:24;;;;;;;3.03;0.90;;;8.80;99.90;;;;;;5062050;28;20505;-79
2024/03/05 11:16:57;;;;;;;1.20;0.80;;;8.70;99.90;;;;;;5061436;28;20489;-80
2024/03/05 11:19:25;;;;;;;0.90;0.70;;;8.60;99.90;;;;;;5061115;28;20433;-81
2024/03/05 11:21:52;;;;;;;2.43;1.30;;;8.60;99.90;;;;;;5060825;28;20441;-82
2024/03/05 11:24:21;;;;;;;2.67;1.20;;;8.50;99.90;;;;;;5061250;28;20430;-81
2024/03/05 11:26:48;;;;;;;1.60;0.90;;;8.50;99.90;;;;;;5060875;28;20471;-81
2024/03/05 11:29:37;;;;;;;0.93;0.73;;;8.50;99.90;;;;;;5059534;28;20449;-80
2024/03/05 11:32:04;;;;;;;2.60;1.00;;;8.50;99.90;;;;;;5060058;28;20430;-80
2024/03/05 11:34:34;;;;;;;4.40;1.40;;;8.50;99.90;;;;;;5059892;28;20488;-80
2024/03/05 11:37:09;;;;;;;0.73;0.73;;;8.40;99.90;;;;;;5060113;28;20548;-80
2024/03/05 11:39:42;;;;;;;2.47;1.00;;;8.40;99.90;;;;;;5060881;28;20464;-80
2024/03/05 11:42:17;;;;;;;1.47;0.93;;;8.30;99.90;;;;;;5059522;28;20429;-80
2024/03/05 11:44:55;;;;;;;1.43;1.27;;;8.30;99.90;;;;;;5059581;28;20427;-80
2024/03/05 11:47:23;;;;;;;2.10;1.20;;;8.20;99.90;;;;;;5060128;28;20461;-80
2024/03/05 11:49:50;;;;;;;1.73;1.10;;;8.20;99.90;;;;;;5059324;28;20452;-80
2024/03/05 11:52:19;;;;;;;1.83;0.90;;;8.20;99.90;;;;;;5057999;28;20964;-80
2024/03/05 11:54:56;;;;;;;3.13;0.87;;;8.20;99.90;;;;;;5058926;28;20418;-80
2024/03/05 11:57:23;;;;;;;0.90;0.60;;;8.20;99.90;;;;;;5059862;28;20846;-80
2024/03/05 11:59:49;;;;;;;0.80;0.80;;;8.30;99.90;;;;;;5060559;28;20545;-81
2024/03/05 12:02:20;;;;;;;0.50;0.50;;;8.30;99.90;;;;;;5059873;28;20438;-80
2024/03/05 12:04:48;;;;;;;0.30;0.30;;;8.40;99.90;;;;;;5059649;28;20488;-80
2024/03/05 12:07:16;;;;;;;0.40;0.40;;;8.50;99.90;;;;;;5061551;28;20473;-80
2024/03/05 12:09:43;;;;;;;0.50;0.50;;;8.50;99.90;;;;;;5062573;28;20441;-80
2024/03/05 12:12:12;;;;;;;0.50;0.37;;;8.50;99.90;;;;;;5060191;28;20442;-80
2024/03/05 12:14:41;;;;;;;0.63;0.40;;;8.50;99.90;;;;;;5058748;28;20438;-80
2024/03/05 12:17:08;;;;;;;0.50;0.50;;;8.50;99.90;;;;;;5058122;28;20481;-80
2024/03/05 12:19:38;;;;;;;0.43;0.43;;;8.50;99.90;;;;;;5058856;28;20452;-80
2024/03/05 12:22:06;;;;;;;1.03;0.30;;;8.60;99.90;;;;;;5058196;28;20505;-80
2024/03/05 12:24:34;;;;;;;0.70;0.57;;;8.70;99.90;;;;;;5058556;28;20434;-80
2024/03/05 12:27:01;;;;;;;0.73;0.40;;;8.80;99.90;;;;;;5058062;28;20469;-80
2024/03/05 12:29:29;;;;;;;0.30;0.30;;;9.00;99.90;;;;;;5057828;28;20456;-80
2024/03/05 12:31:57;;;;;;;0.90;0.53;;;9.20;99.90;;;;;;5059088;28;20442;-82
2024/03/05 12:34:24;;;;;;;0.40;0.40;;;9.40;99.90;;;;;;5058976;28;20761;-79
2024/03/05 12:36:52;;;;;;;0.40;0.30;;;9.50;99.90;;;;;;5057064;28;21009;-79
2024/03/05 12:39:19;;;;;;;0.70;0.50;;;9.40;99.90;;;;;;5063101;28;20981;-80
2024/03/05 12:41:46;;;;;;;0.50;0.40;;;9.50;99.90;;;;;;5060489;28;20460;-80
2024/03/05 12:44:23;;;;;;;0.80;0.40;;;9.50;99.90;;;;;;5060017;28;20449;-80
2024/03/05 12:46:49;;;;;;;0.57;0.57;;;9.60;99.90;;;;;;5058872;28;20461;-80
2024/03/05 12:49:16;;;;;;;0.40;0.30;;;9.60;99.90;;;;;;5059601;28;20442;-80
2024/03/05 12:51:43;;;;;;;0.80;0.40;;;9.70;99.90;;;;;;5060202;28;20452;-80
2024/03/05 12:54:12;;;;;;;2.40;0.30;;;9.80;99.90;;;;;;5059759;28;20444;-80
2024/03/05 12:56:43;;;;;;;0.40;0.37;;;9.90;99.90;;;;;;5059536;28;20477;-80
2024/03/05 12:59:11;;;;;;;0.40;0.30;;;10.00;99.90;;;;;;5061374;28;20887;-80